Time;durP1;ratioP1;P1;durP2;ratioP2;P2;SDS_P1;SDS_P2;PMS_P1;PMS_P2;Temp;Humidity;BMP_temperature;BMP_pressure;BME280_temperature;BME280_humidity;BME280_pressure;Samples;Min_cycle;Max_cycle;Signal;HPM_P1;HPM_P2
2024/03/04 00:02:10;;;;;;;42.25;18.20;;;;;;;;;;5071758;28;20028;-59
2024/03/04 00:04:39;;;;;;;46.13;19.92;;;;;;;;;;5065811;28;20065;-59
2024/03/04 00:07:05;;;;;;;44.58;18.20;;;;;;;;;;5067396;28;20101;-55
2024/03/04 00:09:31;;;;;;;42.58;17.90;;;;;;;;;;5072674;28;20032;-56
2024/03/04 00:11:57;;;;;;;48.13;19.05;;;;;;;;;;5072562;28;20029;-58
2024/03/04 00:14:23;;;;;;;48.13;20.55;;;;;;;;;;5065074;28;20024;-59
2024/03/04 00:16:49;;;;;;;46.90;20.23;;;;;;;;;;5065711;28;20299;-59
2024/03/04 00:19:18;;;;;;;44.67;19.67;;;;;;;;;;5050235;28;20505;-56
2024/03/04 00:21:44;;;;;;;48.88;20.02;;;;;;;;;;5071892;28;20036;-57
2024/03/04 00:24:10;;;;;;;51.00;21.15;;;;;;;;;;5070408;28;20495;-59
2024/03/04 00:26:36;;;;;;;53.45;22.02;;;;;;;;;;5071527;28;20100;-58
2024/03/04 00:29:03;;;;;;;54.15;21.65;;;;;;;;;;5069424;28;20028;-61
2024/03/04 00:31:30;;;;;;;51.42;23.08;;;;;;;;;;5064951;28;20453;-59
2024/03/04 00:33:56;;;;;;;54.83;23.17;;;;;;;;;;5069214;28;20023;-59
2024/03/04 00:36:26;;;;;;;50.58;20.48;;;;;;;;;;5070164;28;20374;-58
2024/03/04 00:38:52;;;;;;;50.70;21.08;;;;;;;;;;5068296;28;20036;-59
2024/03/04 00:41:25;;;;;;;52.85;22.23;;;;;;;;;;5068082;28;20028;-56
2024/03/04 00:43:51;;;;;;;52.97;22.50;;;;;;;;;;5069670;28;20391;-55
2024/03/04 00:46:17;;;;;;;54.95;22.52;;;;;;;;;;5063419;28;20052;-58
2024/03/04 00:48:44;;;;;;;50.97;21.60;;;;;;;;;;5070266;28;20652;-59
2024/03/04 00:51:14;;;;;;;53.17;22.08;;;;;;;;;;5068240;28;20505;-59
2024/03/04 00:53:44;;;;;;;56.53;20.48;;;;;;;;;;5066483;28;20054;-59
2024/03/04 00:56:11;;;;;;;55.80;22.17;;;;;;;;;;5067342;28;20043;-59
2024/03/04 00:58:37;;;;;;;52.72;20.13;;;;;;;;;;5069026;28;20021;-58
2024/03/04 01:01:03;;;;;;;55.63;22.35;;;;;;;;;;5071121;28;20028;-59
2024/03/04 01:03:29;;;;;;;57.03;21.73;;;;;;;;;;5064911;28;20383;-58
2024/03/04 01:05:55;;;;;;;56.35;22.10;;;;;;;;;;5069790;28;20021;-57
2024/03/04 01:08:21;;;;;;;60.03;22.23;;;;;;;;;;5066713;28;20390;-58
2024/03/04 01:10:47;;;;;;;55.08;22.02;;;;;;;;;;5064866;28;20020;-58
2024/03/04 01:13:13;;;;;;;62.05;21.27;;;;;;;;;;5066610;28;20074;-58
2024/03/04 01:15:39;;;;;;;53.05;20.88;;;;;;;;;;5064583;28;20043;-60
2024/03/04 01:18:09;;;;;;;58.13;22.23;;;;;;;;;;5066077;28;20024;-58
2024/03/04 01:20:38;;;;;;;51.13;19.58;;;;;;;;;;5069724;28;20044;-57
2024/03/04 01:23:05;;;;;;;55.15;21.55;;;;;;;;;;5064646;28;20035;-60
2024/03/04 01:25:31;;;;;;;56.70;19.90;;;;;;;;;;5065868;28;20024;-57
2024/03/04 01:27:57;;;;;;;50.78;20.55;;;;;;;;;;5061726;28;20044;-56
2024/03/04 01:30:24;;;;;;;51.90;19.20;;;;;;;;;;5070621;28;20056;-57
2024/03/04 01:32:50;;;;;;;53.10;20.13;;;;;;;;;;5066639;28;20089;-57
2024/03/04 01:35:17;;;;;;;46.42;20.30;;;;;;;;;;5065966;28;20067;-60
2024/03/04 01:37:43;;;;;;;58.03;21.08;;;;;;;;;;5066912;28;20083;-59
2024/03/04 01:40:11;;;;;;;57.20;19.52;;;;;;;;;;5066437;28;20099;-58
2024/03/04 01:42:37;;;;;;;57.35;19.67;;;;;;;;;;5066113;28;20017;-58
2024/03/04 01:45:14;;;;;;;57.80;19.00;;;;;;;;;;5065546;28;20280;-59
2024/03/04 01:47:40;;;;;;;63.20;18.85;;;;;;;;;;5066817;28;20021;-59
2024/03/04 01:50:08;;;;;;;52.67;21.35;;;;;;;;;;5070072;28;20388;-58
2024/03/04 01:52:35;;;;;;;51.58;21.55;;;;;;;;;;5062404;28;20422;-60
2024/03/04 01:55:01;;;;;;;61.28;22.20;;;;;;;;;;5063359;28;20029;-59
2024/03/04 01:57:27;;;;;;;63.75;22.58;;;;;;;;;;5070047;28;20115;-59
2024/03/04 01:59:53;;;;;;;55.60;20.67;;;;;;;;;;5060957;28;20043;-56
2024/03/04 02:02:19;;;;;;;65.07;23.55;;;;;;;;;;5064772;28;20025;-57
2024/03/04 02:04:46;;;;;;;62.95;22.92;;;;;;;;;;5065002;28;20028;-56
2024/03/04 02:07:13;;;;;;;74.95;25.52;;;;;;;;;;5060026;28;20544;-56
2024/03/04 02:09:39;;;;;;;61.08;23.08;;;;;;;;;;5065691;28;20479;-57
2024/03/04 02:12:06;;;;;;;75.03;27.15;;;;;;;;;;5076868;28;20052;-56
2024/03/04 02:14:32;;;;;;;63.88;22.35;;;;;;;;;;5068282;28;20031;-60
2024/03/04 02:16:58;;;;;;;72.35;24.10;;;;;;;;;;5070337;28;20028;-55
2024/03/04 02:19:24;;;;;;;75.45;26.48;;;;;;;;;;5070871;28;20496;-56
2024/03/04 02:21:52;;;;;;;79.28;26.80;;;;;;;;;;5067298;28;20378;-56
2024/03/04 02:24:19;;;;;;;71.68;26.00;;;;;;;;;;5064846;28;20032;-57
2024/03/04 02:26:45;;;;;;;73.72;26.92;;;;;;;;;;5069227;28;20028;-59
2024/03/04 02:29:12;;;;;;;70.75;24.75;;;;;;;;;;5073837;28;20379;-59
2024/03/04 02:31:39;;;;;;;79.28;26.30;;;;;;;;;;5067402;28;20029;-57
2024/03/04 02:34:05;;;;;;;74.95;25.95;;;;;;;;;;5070078;28;20059;-56
2024/03/04 02:36:31;;;;;;;78.97;27.60;;;;;;;;;;5068646;28;20137;-55
2024/03/04 02:38:57;;;;;;;84.63;28.50;;;;;;;;;;5066780;28;20524;-57
2024/03/04 02:41:25;;;;;;;83.85;27.75;;;;;;;;;;5075135;28;20483;-57
2024/03/04 02:43:51;;;;;;;69.00;27.52;;;;;;;;;;5064321;28;20078;-57
2024/03/04 02:46:18;;;;;;;72.90;26.92;;;;;;;;;;5065901;28;20390;-55
2024/03/04 02:48:44;;;;;;;77.53;29.27;;;;;;;;;;5071702;28;20417;-59
2024/03/04 02:51:10;;;;;;;70.78;27.25;;;;;;;;;;5074239;28;20029;-59
2024/03/04 02:53:36;;;;;;;76.05;27.02;;;;;;;;;;5067566;28;20111;-59
2024/03/04 02:56:02;;;;;;;69.05;26.60;;;;;;;;;;5082007;28;20083;-59
2024/03/04 02:58:28;;;;;;;79.63;26.77;;;;;;;;;;5069388;28;20032;-58
2024/03/04 03:00:54;;;;;;;70.43;26.85;;;;;;;;;;5077094;28;20020;-57
2024/03/04 03:03:22;;;;;;;70.20;26.98;;;;;;;;;;5067970;28;20174;-56
2024/03/04 03:05:48;;;;;;;69.80;27.42;;;;;;;;;;5072183;28;20016;-58
2024/03/04 03:08:15;;;;;;;61.40;22.90;;;;;;;;;;5068257;28;20037;-58
2024/03/04 03:10:40;;;;;;;62.88;24.50;;;;;;;;;;5074729;28;20146;-59
2024/03/04 03:13:07;;;;;;;58.30;22.13;;;;;;;;;;5072485;28;20515;-56
2024/03/04 03:15:34;;;;;;;66.68;24.42;;;;;;;;;;5073421;28;20017;-56
2024/03/04 03:18:03;;;;;;;62.63;22.95;;;;;;;;;;5070542;28;20054;-56
2024/03/04 03:20:29;;;;;;;63.35;23.77;;;;;;;;;;5069068;28;20092;-58
2024/03/04 03:22:55;;;;;;;57.45;22.38;;;;;;;;;;5071147;28;20070;-59
2024/03/04 03:25:21;;;;;;;53.00;22.02;;;;;;;;;;5066493;28;20623;-58
2024/03/04 03:27:47;;;;;;;58.80;21.10;;;;;;;;;;5071979;28;20526;-56
2024/03/04 03:30:14;;;;;;;66.03;23.15;;;;;;;;;;5068934;28;20386;-58
2024/03/04 03:32:40;;;;;;;48.15;20.20;;;;;;;;;;5066984;28;20029;-59
2024/03/04 03:35:06;;;;;;;56.65;20.05;;;;;;;;;;5070428;28;20534;-58
2024/03/04 03:37:35;;;;;;;46.35;19.52;;;;;;;;;;5073051;28;20092;-59
2024/03/04 03:40:02;;;;;;;43.85;18.70;;;;;;;;;;5075474;28;20078;-59
2024/03/04 03:42:30;;;;;;;50.28;19.10;;;;;;;;;;5073250;28;20573;-56
2024/03/04 03:44:56;;;;;;;48.60;18.52;;;;;;;;;;5071242;28;20024;-57
2024/03/04 03:47:22;;;;;;;46.58;18.55;;;;;;;;;;5067560;28;20043;-56
2024/03/04 03:49:48;;;;;;;41.42;17.73;;;;;;;;;;5071180;28;20074;-59
2024/03/04 03:52:14;;;;;;;41.00;18.10;;;;;;;;;;5070266;28;20363;-56
2024/03/04 03:54:40;;;;;;;48.53;17.42;;;;;;;;;;5072650;28;20537;-59
2024/03/04 03:57:06;;;;;;;39.38;17.25;;;;;;;;;;5081347;28;20494;-60
2024/03/04 03:59:32;;;;;;;42.45;18.30;;;;;;;;;;5069146;28;20075;-58
2024/03/04 04:01:58;;;;;;;48.58;18.58;;;;;;;;;;5075166;28;20032;-59
2024/03/04 04:04:27;;;;;;;54.58;20.25;;;;;;;;;;5067411;28;20028;-59
2024/03/04 04:06:53;;;;;;;47.75;18.85;;;;;;;;;;5066055;28;20036;-60
2024/03/04 04:09:19;;;;;;;49.92;18.73;;;;;;;;;;5073498;28;20048;-58
2024/03/04 04:11:45;;;;;;;51.00;17.65;;;;;;;;;;5069809;28;20073;-58
2024/03/04 04:14:11;;;;;;;55.15;19.70;;;;;;;;;;5072535;28;20486;-59
2024/03/04 04:16:37;;;;;;;60.22;22.70;;;;;;;;;;5076727;28;20486;-60
2024/03/04 04:19:04;;;;;;;56.58;21.50;;;;;;;;;;5068179;28;20035;-59
2024/03/04 04:21:31;;;;;;;61.70;23.90;;;;;;;;;;5065622;28;20093;-59
2024/03/04 04:23:57;;;;;;;56.85;21.33;;;;;;;;;;5072718;28;20043;-59
2024/03/04 04:26:26;;;;;;;54.53;21.13;;;;;;;;;;5070529;28;20603;-56
2024/03/04 04:28:52;;;;;;;59.78;22.60;;;;;;;;;;5074900;28;20028;-56
2024/03/04 04:31:19;;;;;;;56.42;21.70;;;;;;;;;;5069455;28;20035;-58
2024/03/04 04:33:45;;;;;;;65.55;23.27;;;;;;;;;;5067910;28;20043;-58
2024/03/04 04:36:12;;;;;;;55.08;23.50;;;;;;;;;;5072175;28;20032;-59
2024/03/04 04:38:38;;;;;;;56.63;23.73;;;;;;;;;;5049710;28;20024;-59
2024/03/04 04:41:04;;;;;;;65.95;23.77;;;;;;;;;;5048777;28;20017;-58
2024/03/04 04:43:31;;;;;;;59.97;22.98;;;;;;;;;;5074325;28;20024;-58
2024/03/04 04:45:58;;;;;;;61.35;23.85;;;;;;;;;;5075174;28;20023;-58
2024/03/04 04:48:24;;;;;;;62.20;23.00;;;;;;;;;;5076480;28;20466;-59
2024/03/04 04:50:50;;;;;;;60.30;23.35;;;;;;;;;;5063835;28;20020;-58
2024/03/04 04:53:16;;;;;;;59.67;22.45;;;;;;;;;;5065589;28;20028;-58
2024/03/04 04:55:42;;;;;;;59.17;24.02;;;;;;;;;;5067004;28;20036;-58
2024/03/04 04:58:07;;;;;;;58.72;22.92;;;;;;;;;;5069468;28;20021;-60
2024/03/04 05:00:33;;;;;;;68.60;24.60;;;;;;;;;;5068701;28;20098;-58
2024/03/04 05:02:59;;;;;;;62.50;24.85;;;;;;;;;;5067324;28;20457;-59
2024/03/04 05:05:25;;;;;;;58.80;23.15;;;;;;;;;;5068900;28;20056;-58
2024/03/04 05:07:51;;;;;;;60.90;22.08;;;;;;;;;;5055067;28;20046;-59
2024/03/04 05:10:17;;;;;;;63.83;24.23;;;;;;;;;;5069210;28;20025;-58
2024/03/04 05:12:43;;;;;;;71.00;25.20;;;;;;;;;;5070962;28;20217;-58
2024/03/04 05:15:09;;;;;;;62.45;23.75;;;;;;;;;;5069669;28;20478;-59
2024/03/04 05:17:37;;;;;;;57.75;21.77;;;;;;;;;;5060658;28;20221;-59
2024/03/04 05:20:06;;;;;;;59.15;20.98;;;;;;;;;;5069171;28;20102;-58
2024/03/04 05:22:32;;;;;;;55.00;20.92;;;;;;;;;;5063749;28;20096;-57
2024/03/04 05:24:58;;;;;;;52.22;20.45;;;;;;;;;;5062608;28;20035;-60
2024/03/04 05:27:24;;;;;;;56.97;21.33;;;;;;;;;;5067627;28;20052;-59
2024/03/04 05:29:50;;;;;;;57.67;21.13;;;;;;;;;;5064120;28;20060;-58
2024/03/04 05:32:16;;;;;;;58.90;21.45;;;;;;;;;;5063925;28;20028;-58
2024/03/04 05:34:43;;;;;;;53.38;21.67;;;;;;;;;;5065303;28;20031;-58
2024/03/04 05:37:11;;;;;;;50.40;20.98;;;;;;;;;;5064039;28;20040;-58
2024/03/04 05:39:37;;;;;;;58.30;21.10;;;;;;;;;;5070711;28;20094;-58
2024/03/04 05:42:03;;;;;;;63.05;22.38;;;;;;;;;;5063283;28;20032;-60
2024/03/04 05:44:29;;;;;;;47.78;21.80;;;;;;;;;;5067905;28;20020;-58
2024/03/04 05:46:55;;;;;;;60.10;21.90;;;;;;;;;;5068301;28;20028;-60
2024/03/04 05:49:21;;;;;;;55.58;22.23;;;;;;;;;;5065104;28;20039;-60
2024/03/04 05:51:47;;;;;;;53.03;21.00;;;;;;;;;;5068246;28;20028;-59
2024/03/04 05:54:13;;;;;;;55.75;22.77;;;;;;;;;;5067911;28;20028;-58
2024/03/04 05:56:43;;;;;;;58.92;21.35;;;;;;;;;;5064510;28;20094;-56
2024/03/04 05:59:09;;;;;;;54.28;21.85;;;;;;;;;;5069841;28;20389;-59
2024/03/04 06:01:36;;;;;;;47.58;20.45;;;;;;;;;;5070194;28;20028;-59
2024/03/04 06:04:02;;;;;;;50.92;20.38;;;;;;;;;;5065409;28;20036;-58
2024/03/04 06:06:28;;;;;;;48.72;22.05;;;;;;;;;;5066997;28;20484;-58
2024/03/04 06:08:56;;;;;;;55.65;22.52;;;;;;;;;;5067236;28;20103;-59
2024/03/04 06:11:22;;;;;;;50.70;21.70;;;;;;;;;;5063037;28;20880;-58
2024/03/04 06:13:48;;;;;;;56.97;21.70;;;;;;;;;;5067736;28;20035;-60
2024/03/04 06:16:14;;;;;;;56.88;22.92;;;;;;;;;;5067068;28;20053;-59
2024/03/04 06:18:41;;;;;;;46.92;21.33;;;;;;;;;;5065272;28;20028;-59
2024/03/04 06:21:07;;;;;;;51.33;21.85;;;;;;;;;;5070031;28;20113;-59
2024/03/04 06:23:33;;;;;;;50.78;21.15;;;;;;;;;;5071863;28;20518;-59
2024/03/04 06:25:59;;;;;;;50.10;22.17;;;;;;;;;;5073560;28;20032;-60
2024/03/04 06:28:25;;;;;;;53.85;22.00;;;;;;;;;;5069798;28;20062;-58
2024/03/04 06:30:51;;;;;;;50.33;20.27;;;;;;;;;;5081016;28;20528;-58
2024/03/04 06:33:17;;;;;;;46.78;21.40;;;;;;;;;;5076462;28;20016;-58
2024/03/04 06:35:43;;;;;;;55.78;22.50;;;;;;;;;;5074924;28;20078;-59
2024/03/04 06:38:09;;;;;;;55.15;23.02;;;;;;;;;;5072176;28;20025;-59
2024/03/04 06:40:35;;;;;;;55.00;21.63;;;;;;;;;;5070651;28;20025;-59
2024/03/04 06:43:01;;;;;;;49.90;22.40;;;;;;;;;;5073862;28;20016;-59
2024/03/04 06:45:27;;;;;;;46.55;20.40;;;;;;;;;;5067583;28;20024;-58
2024/03/04 06:47:53;;;;;;;43.45;18.90;;;;;;;;;;5081654;28;20043;-59
2024/03/04 06:50:19;;;;;;;53.35;19.25;;;;;;;;;;5068925;28;20056;-59
2024/03/04 06:52:45;;;;;;;42.00;18.20;;;;;;;;;;5076320;28;20037;-58
2024/03/04 06:55:11;;;;;;;39.83;17.63;;;;;;;;;;5069913;28;20032;-60
2024/03/04 06:57:37;;;;;;;40.58;17.88;;;;;;;;;;5078098;28;20040;-60
2024/03/04 07:00:04;;;;;;;36.47;15.18;;;;;;;;;;5071699;28;20048;-58
2024/03/04 07:02:30;;;;;;;34.75;15.60;;;;;;;;;;5071095;28;20016;-59
2024/03/04 07:04:56;;;;;;;39.03;14.88;;;;;;;;;;5067294;28;20036;-59
2024/03/04 07:07:24;;;;;;;27.33;13.70;;;;;;;;;;5065943;28;20032;-58
2024/03/04 07:09:50;;;;;;;28.80;12.10;;;;;;;;;;5071206;28;20036;-59
2024/03/04 07:12:16;;;;;;;38.67;11.65;;;;;;;;;;5075422;28;20032;-59
2024/03/04 07:14:42;;;;;;;25.92;10.75;;;;;;;;;;5073003;28;20060;-58
2024/03/04 07:17:08;;;;;;;23.85;10.30;;;;;;;;;;5072599;28;20033;-57
2024/03/04 07:19:34;;;;;;;29.02;10.45;;;;;;;;;;5069604;28;20056;-57
2024/03/04 07:22:00;;;;;;;25.80;10.73;;;;;;;;;;5072141;28;20043;-58
2024/03/04 07:24:26;;;;;;;24.70;10.25;;;;;;;;;;5065219;28;20029;-59
2024/03/04 07:26:52;;;;;;;22.38;10.45;;;;;;;;;;5065084;28;20033;-58
2024/03/04 07:29:18;;;;;;;27.58;11.93;;;;;;;;;;5073240;28;20099;-60
2024/03/04 07:31:46;;;;;;;26.42;10.18;;;;;;;;;;5077861;28;20029;-58
2024/03/04 07:34:12;;;;;;;25.13;9.88;;;;;;;;;;5071007;28;20028;-59
2024/03/04 07:36:38;;;;;;;24.23;10.23;;;;;;;;;;5068555;28;20494;-55
2024/03/04 07:39:04;;;;;;;25.75;9.80;;;;;;;;;;5068172;28;21514;-60
2024/03/04 07:41:30;;;;;;;21.73;10.48;;;;;;;;;;5075129;28;20047;-57
2024/03/04 07:43:56;;;;;;;23.70;10.30;;;;;;;;;;5073909;28;20029;-59
2024/03/04 07:46:22;;;;;;;22.73;10.43;;;;;;;;;;5071452;28;20028;-59
2024/03/04 07:48:48;;;;;;;19.35;10.25;;;;;;;;;;5067734;28;20025;-60
2024/03/04 07:51:14;;;;;;;22.02;10.63;;;;;;;;;;5063600;28;20116;-60
2024/03/04 07:53:40;;;;;;;25.15;11.43;;;;;;;;;;5069975;28;20031;-57
2024/03/04 07:56:06;;;;;;;29.83;12.52;;;;;;;;;;5070639;28;20032;-59
2024/03/04 07:58:33;;;;;;;35.72;13.70;;;;;;;;;;5076741;28;20111;-60
2024/03/04 08:00:59;;;;;;;35.72;13.80;;;;;;;;;;5070117;28;20016;-58
2024/03/04 08:03:25;;;;;;;29.55;13.43;;;;;;;;;;5070595;28;20017;-59
2024/03/04 08:05:51;;;;;;;32.35;14.05;;;;;;;;;;5064434;28;20138;-59
2024/03/04 08:08:17;;;;;;;38.13;14.15;;;;;;;;;;5070591;28;20103;-59
2024/03/04 08:10:43;;;;;;;34.97;13.68;;;;;;;;;;5071429;28;20052;-60
2024/03/04 08:13:09;;;;;;;35.63;14.90;;;;;;;;;;5070131;28;20044;-58
2024/03/04 08:15:35;;;;;;;34.58;13.70;;;;;;;;;;5072350;28;20021;-58
2024/03/04 08:18:01;;;;;;;36.42;14.25;;;;;;;;;;5074581;28;20127;-58
2024/03/04 08:20:27;;;;;;;35.85;14.85;;;;;;;;;;5071976;28;20031;-58
2024/03/04 08:22:53;;;;;;;30.70;13.02;;;;;;;;;;5069312;28;20457;-59
2024/03/04 08:25:19;;;;;;;29.83;13.75;;;;;;;;;;5055735;28;20493;-58
2024/03/04 08:27:46;;;;;;;39.42;13.57;;;;;;;;;;5066386;28;20118;-59
2024/03/04 08:30:15;;;;;;;24.55;10.95;;;;;;;;;;5061273;28;20162;-60
2024/03/04 08:32:42;;;;;;;26.60;11.23;;;;;;;;;;5068929;28;20028;-59
2024/03/04 08:35:09;;;;;;;33.03;11.20;;;;;;;;;;5066558;28;20033;-59
2024/03/04 08:37:35;;;;;;;33.22;10.05;;;;;;;;;;5066349;28;20023;-59
2024/03/04 08:40:03;;;;;;;23.70;9.65;;;;;;;;;;5062823;28;20029;-59
2024/03/04 08:42:30;;;;;;;31.42;9.85;;;;;;;;;;5070624;28;20027;-58
2024/03/04 08:44:56;;;;;;;19.10;7.82;;;;;;;;;;5069713;28;20044;-59
2024/03/04 08:47:22;;;;;;;17.65;6.78;;;;;;;;;;5063463;28;20407;-58
2024/03/04 08:49:48;;;;;;;15.10;6.97;;;;;;;;;;5063748;28;20021;-59
2024/03/04 08:52:14;;;;;;;18.85;7.25;;;;;;;;;;5067730;28;20514;-59
2024/03/04 08:54:40;;;;;;;15.23;6.10;;;;;;;;;;5067602;28;20273;-58
2024/03/04 08:57:06;;;;;;;20.15;6.90;;;;;;;;;;5064619;28;20052;-59
2024/03/04 08:59:32;;;;;;;17.83;7.38;;;;;;;;;;5067858;28;20394;-57
2024/03/04 09:01:58;;;;;;;21.90;9.45;;;;;;;;;;5060629;28;20036;-58
2024/03/04 09:04:24;;;;;;;21.15;8.48;;;;;;;;;;5068571;28;20051;-56
2024/03/04 09:06:50;;;;;;;22.20;8.68;;;;;;;;;;5059993;28;20032;-59
2024/03/04 09:09:16;;;;;;;21.60;10.00;;;;;;;;;;5064321;28;20517;-57
2024/03/04 09:11:42;;;;;;;29.33;9.07;;;;;;;;;;5063684;28;20028;-59
2024/03/04 09:14:08;;;;;;;26.75;10.45;;;;;;;;;;5068786;28;20538;-60
2024/03/04 09:16:34;;;;;;;23.50;8.60;;;;;;;;;;5065587;28;20024;-59
2024/03/04 09:19:01;;;;;;;19.80;8.30;;;;;;;;;;5069090;28;20509;-59
2024/03/04 09:21:27;;;;;;;19.48;8.48;;;;;;;;;;5059676;28;20459;-61
2024/03/04 09:23:53;;;;;;;21.95;9.20;;;;;;;;;;5072715;28;20028;-60
2024/03/04 09:26:19;;;;;;;20.83;8.18;;;;;;;;;;5062815;28;20115;-60
2024/03/04 09:28:51;;;;;;;21.38;8.73;;;;;;;;;;5073927;28;20070;-60
2024/03/04 09:31:17;;;;;;;15.68;8.88;;;;;;;;;;5062819;28;20053;-60
2024/03/04 09:33:46;;;;;;;21.35;8.35;;;;;;;;;;5073260;28;20047;-59
2024/03/04 09:36:15;;;;;;;17.63;7.70;;;;;;;;;;5070339;28;20056;-59
2024/03/04 09:38:44;;;;;;;14.07;8.13;;;;;;;;;;5071679;28;20028;-60
2024/03/04 09:41:10;;;;;;;17.23;8.45;;;;;;;;;;5064984;28;20064;-59
2024/03/04 09:43:38;;;;;;;15.27;7.13;;;;;;;;;;5068979;28;20052;-59
2024/03/04 09:46:06;;;;;;;21.48;9.07;;;;;;;;;;5069177;28;20124;-59
2024/03/04 09:48:32;;;;;;;17.15;7.78;;;;;;;;;;5077228;28;20073;-59
2024/03/04 09:50:59;;;;;;;17.40;9.23;;;;;;;;;;5062099;28;20067;-59
2024/03/04 09:53:27;;;;;;;25.92;7.53;;;;;;;;;;5069826;28;20032;-58
2024/03/04 09:55:53;;;;;;;19.75;8.27;;;;;;;;;;5063237;28;20671;-58
2024/03/04 09:58:20;;;;;;;16.80;7.68;;;;;;;;;;5060123;28;20029;-56
2024/03/04 10:00:46;;;;;;;21.50;10.48;;;;;;;;;;5065579;28;20518;-59
2024/03/04 10:03:12;;;;;;;21.05;9.30;;;;;;;;;;5061034;28;20029;-57
2024/03/04 10:05:38;;;;;;;27.02;10.93;;;;;;;;;;5064503;28;20028;-59
2024/03/04 10:08:04;;;;;;;23.80;9.52;;;;;;;;;;5072810;28;20111;-59
2024/03/04 10:10:31;;;;;;;26.02;10.70;;;;;;;;;;5071217;28;20021;-58
2024/03/04 10:12:57;;;;;;;29.23;12.65;;;;;;;;;;5069836;28;20025;-60
2024/03/04 10:15:23;;;;;;;33.35;12.73;;;;;;;;;;5067511;28;20017;-59
2024/03/04 10:17:50;;;;;;;28.08;12.02;;;;;;;;;;5071775;28;20043;-59
2024/03/04 10:20:16;;;;;;;20.58;10.68;;;;;;;;;;5076622;28;20024;-59
2024/03/04 10:22:43;;;;;;;20.83;10.43;;;;;;;;;;5075327;28;20517;-59
2024/03/04 10:25:10;;;;;;;17.13;9.30;;;;;;;;;;5083117;28;20036;-59
2024/03/04 10:27:38;;;;;;;19.45;9.93;;;;;;;;;;5075732;28;20028;-59
2024/03/04 10:30:10;;;;;;;21.23;10.55;;;;;;;;;;5069361;28;20039;-59
2024/03/04 10:32:37;;;;;;;27.83;10.60;;;;;;;;;;5070213;28;20021;-57
2024/03/04 10:35:04;;;;;;;24.30;10.57;;;;;;;;;;5069838;28;20029;-58
2024/03/04 10:37:30;;;;;;;25.08;11.00;;;;;;;;;;5075954;28;20401;-58
2024/03/04 10:39:56;;;;;;;27.23;12.70;;;;;;;;;;5076474;28;20020;-59
2024/03/04 10:42:22;;;;;;;32.40;14.40;;;;;;;;;;5075111;28;20047;-59
2024/03/04 10:44:49;;;;;;;34.97;12.18;;;;;;;;;;5074066;28;20056;-58
2024/03/04 10:47:16;;;;;;;32.10;12.40;;;;;;;;;;5058810;28;20481;-59
2024/03/04 10:49:42;;;;;;;31.30;12.15;;;;;;;;;;5076119;28;20071;-59
2024/03/04 10:52:08;;;;;;;28.05;13.00;;;;;;;;;;5071384;28;20033;-59
2024/03/04 10:54:35;;;;;;;22.75;11.88;;;;;;;;;;5079125;28;20386;-58
2024/03/04 10:57:05;;;;;;;22.73;11.52;;;;;;;;;;5068947;28;20115;-58
2024/03/04 10:59:36;;;;;;;26.63;12.00;;;;;;;;;;5077160;28;20085;-58
2024/03/04 11:02:05;;;;;;;25.90;11.77;;;;;;;;;;5070953;28;20405;-59
2024/03/04 11:04:31;;;;;;;25.45;10.57;;;;;;;;;;5070259;28;20031;-59
2024/03/04 11:06:58;;;;;;;26.02;11.68;;;;;;;;;;5068955;28;20228;-59
2024/03/04 11:09:24;;;;;;;18.88;9.75;;;;;;;;;;5069106;28;20029;-59
2024/03/04 11:11:55;;;;;;;26.73;11.63;;;;;;;;;;5069577;28;20073;-58
2024/03/04 11:14:32;;;;;;;23.70;10.55;;;;;;;;;;5079430;28;20074;-59
2024/03/04 11:16:57;;;;;;;19.52;9.60;;;;;;;;;;5066877;28;20060;-58
2024/03/04 11:19:27;;;;;;;17.58;9.73;;;;;;;;;;5070919;28;20398;-57
2024/03/04 11:21:53;;;;;;;20.05;9.10;;;;;;;;;;5069991;28;20040;-58
2024/03/04 11:24:20;;;;;;;27.13;10.13;;;;;;;;;;5071928;28;20017;-58
2024/03/04 11:26:46;;;;;;;24.52;9.55;;;;;;;;;;5076001;28;20070;-58
2024/03/04 11:29:12;;;;;;;19.35;9.55;;;;;;;;;;5065079;28;20032;-59
2024/03/04 11:31:39;;;;;;;16.60;9.20;;;;;;;;;;5070592;28;20567;-58
2024/03/04 11:34:06;;;;;;;16.60;9.00;;;;;;;;;;5072239;28;20032;-59
2024/03/04 11:36:32;;;;;;;22.95;10.60;;;;;;;;;;5073780;28;20036;-59
2024/03/04 11:38:59;;;;;;;22.63;10.30;;;;;;;;;;5070003;28;20012;-59
2024/03/04 11:41:40;;;;;;;20.60;9.65;;;;;;;;;;5064135;28;20050;-59
2024/03/04 11:44:07;;;;;;;20.70;9.43;;;;;;;;;;5061887;28;20044;-60
2024/03/04 11:46:36;;;;;;;20.67;9.27;;;;;;;;;;5068666;28;20070;-60
2024/03/04 11:49:24;;;;;;;22.08;9.48;;;;;;;;;;5068153;28;20039;-59
2024/03/04 11:51:57;;;;;;;19.15;8.90;;;;;;;;;;5067849;28;20039;-59
2024/03/04 11:54:35;;;;;;;15.10;8.18;;;;;;;;;;5066489;28;20028;-60
2024/03/04 11:57:01;;;;;;;18.13;8.30;;;;;;;;;;5069558;28;20032;-59
2024/03/04 11:59:28;;;;;;;15.80;7.32;;;;;;;;;;5069272;28;20027;-59
2024/03/04 12:01:54;;;;;;;23.17;8.90;;;;;;;;;;5067658;28;20406;-59
2024/03/04 12:04:22;;;;;;;16.40;7.28;;;;;;;;;;5068442;28;20505;-59
2024/03/04 12:06:48;;;;;;;14.85;8.07;;;;;;;;;;5064105;28;20508;-60
2024/03/04 12:09:25;;;;;;;16.35;7.63;;;;;;;;;;5070238;28;20036;-59
2024/03/04 12:11:51;;;;;;;16.33;7.70;;;;;;;;;;5070039;28;20312;-59
2024/03/04 12:14:17;;;;;;;11.95;7.22;;;;;;;;;;5078190;28;20028;-59
2024/03/04 12:16:43;;;;;;;10.10;5.60;;;;;;;;;;5063241;28;20036;-57
2024/03/04 12:19:09;;;;;;;12.05;5.88;;;;;;;;;;5069240;28;20021;-57
2024/03/04 12:21:36;;;;;;;11.90;5.93;;;;;;;;;;5061131;28;20020;-59
2024/03/04 12:24:02;;;;;;;12.18;6.05;;;;;;;;;;5064221;28;20056;-58
2024/03/04 12:26:28;;;;;;;13.43;5.25;;;;;;;;;;5063539;28;20062;-60
2024/03/04 12:28:58;;;;;;;14.70;5.22;;;;;;;;;;5071896;28;20040;-59
2024/03/04 12:31:24;;;;;;;10.77;6.20;;;;;;;;;;5068407;28;20020;-59
2024/03/04 12:33:52;;;;;;;14.02;6.10;;;;;;;;;;5068343;28;20076;-59
2024/03/04 12:36:18;;;;;;;19.05;9.55;;;;;;;;;;5063479;28;20051;-58
2024/03/04 12:38:45;;;;;;;14.75;7.47;;;;;;;;;;5075899;28;20028;-59
2024/03/04 12:41:21;;;;;;;15.77;7.55;;;;;;;;;;5064591;28;20113;-58
2024/03/04 12:43:50;;;;;;;15.45;7.10;;;;;;;;;;5069205;28;20146;-59
2024/03/04 12:46:20;;;;;;;18.33;7.80;;;;;;;;;;5067663;28;20033;-59
2024/03/04 12:48:46;;;;;;;14.88;7.50;;;;;;;;;;5067458;28;20045;-60
2024/03/04 12:51:12;;;;;;;19.73;10.48;;;;;;;;;;5063745;28;20074;-59
2024/03/04 12:53:42;;;;;;;21.52;9.35;;;;;;;;;;5068899;28;20335;-58
2024/03/04 12:56:08;;;;;;;12.38;7.90;;;;;;;;;;5063372;28;20025;-58
2024/03/04 12:58:34;;;;;;;15.25;8.07;;;;;;;;;;5065531;28;20024;-59
2024/03/04 13:01:00;;;;;;;12.82;7.05;;;;;;;;;;5064715;28;20028;-57
2024/03/04 13:03:26;;;;;;;17.02;8.45;;;;;;;;;;5067513;28;20069;-59
2024/03/04 13:05:52;;;;;;;19.50;7.75;;;;;;;;;;5062676;28;20024;-57
2024/03/04 13:08:18;;;;;;;12.05;7.18;;;;;;;;;;5065552;28;20017;-57
2024/03/04 13:10:44;;;;;;;17.92;8.05;;;;;;;;;;5071259;28;20024;-59
2024/03/04 13:13:10;;;;;;;11.02;6.88;;;;;;;;;;5066124;28;20056;-57
2024/03/04 13:15:39;;;;;;;16.60;7.13;;;;;;;;;;5062752;28;20102;-56
2024/03/04 13:18:06;;;;;;;11.10;6.22;;;;;;;;;;5064386;28;20051;-58
2024/03/04 13:20:32;;;;;;;14.70;6.35;;;;;;;;;;5069023;28;20032;-58
2024/03/04 13:22:58;;;;;;;9.02;5.50;;;;;;;;;;5062362;28;20151;-58
2024/03/04 13:25:24;;;;;;;10.95;5.40;;;;;;;;;;5068792;28;20535;-57
2024/03/04 13:27:50;;;;;;;8.27;5.10;;;;;;;;;;5065700;28;20095;-59
2024/03/04 13:30:17;;;;;;;11.85;5.65;;;;;;;;;;5069879;28;20108;-58
2024/03/04 13:32:44;;;;;;;9.85;6.22;;;;;;;;;;5068794;28;20020;-57
2024/03/04 13:35:10;;;;;;;10.52;6.40;;;;;;;;;;5068583;28;20082;-58
2024/03/04 13:37:37;;;;;;;14.15;6.35;;;;;;;;;;5066907;28;20034;-59
2024/03/04 13:40:06;;;;;;;10.82;5.88;;;;;;;;;;5065555;28;20036;-58
2024/03/04 13:42:32;;;;;;;17.92;8.73;;;;;;;;;;5063974;28;20046;-59
2024/03/04 13:44:58;;;;;;;14.85;7.88;;;;;;;;;;5068448;28;20088;-59
2024/03/04 13:47:24;;;;;;;15.68;6.55;;;;;;;;;;5052012;28;20755;-59
2024/03/04 13:49:50;;;;;;;13.95;7.65;;;;;;;;;;5062079;28;20021;-59
2024/03/04 13:52:16;;;;;;;11.13;6.35;;;;;;;;;;5065859;28;20544;-59
2024/03/04 13:54:41;;;;;;;11.65;6.28;;;;;;;;;;5064015;28;20029;-59
2024/03/04 13:57:08;;;;;;;12.75;6.97;;;;;;;;;;5067418;28;20025;-58
2024/03/04 13:59:34;;;;;;;15.20;6.47;;;;;;;;;;5062063;28;20025;-58
2024/03/04 14:02:00;;;;;;;10.32;6.43;;;;;;;;;;5066793;28;20051;-57
2024/03/04 14:04:26;;;;;;;11.38;6.22;;;;;;;;;;5064822;28;20495;-58
2024/03/04 14:06:55;;;;;;;11.38;5.68;;;;;;;;;;5062407;28;20024;-59
2024/03/04 14:09:21;;;;;;;14.70;5.20;;;;;;;;;;5063116;28;20476;-59
2024/03/04 14:11:47;;;;;;;13.80;5.60;;;;;;;;;;5069026;28;20025;-61
2024/03/04 14:14:13;;;;;;;7.82;4.88;;;;;;;;;;5065846;28;20036;-60
2024/03/04 14:16:39;;;;;;;9.13;5.07;;;;;;;;;;5067791;28;20032;-60
2024/03/04 14:19:06;;;;;;;12.80;4.70;;;;;;;;;;5071946;28;20056;-58